createdAt,value
2023-10-02T00:03:26.535Z,101306.16
2023-10-02T00:08:44.653Z,101311.50
2023-10-02T00:13:49.804Z,101302.88
2023-10-02T00:18:52.457Z,101305.97
2023-10-02T00:24:01.289Z,101312.38
2023-10-02T00:29:07.688Z,101307.44
2023-10-02T00:34:10.345Z,101293.88
2023-10-02T00:39:33.171Z,101290.34
2023-10-02T00:44:56.306Z,101294.09
2023-10-02T00:50:08.571Z,101291.00
2023-10-02T00:55:20.576Z,101293.06
2023-10-02T01:00:32.647Z,101282.34
2023-10-02T01:05:43.652Z,101292.41
2023-10-02T01:10:46.511Z,101305.38
2023-10-02T01:15:50.846Z,101302.69
2023-10-02T01:20:55.000Z,101295.72
2023-10-02T01:25:59.248Z,101301.06
2023-10-02T01:31:21.920Z,101298.41
2023-10-02T01:36:29.831Z,101295.94
2023-10-02T01:41:33.743Z,101291.44
2023-10-02T01:46:38.410Z,101287.13
2023-10-02T01:51:43.528Z,101277.84
2023-10-02T01:56:48.921Z,101275.41
2023-10-02T02:01:59.075Z,101280.13
2023-10-02T02:07:03.922Z,101274.38
2023-10-02T02:12:14.391Z,101280.31
2023-10-02T02:17:28.061Z,101275.41
2023-10-02T02:22:34.301Z,101277.44
2023-10-02T02:27:38.322Z,101271.28
2023-10-02T02:32:56.202Z,101272.09
2023-10-02T02:37:59.530Z,101258.53
2023-10-02T02:43:12.896Z,101263.88
2023-10-02T02:48:17.768Z,101268.19
2023-10-02T02:53:25.712Z,101266.13
2023-10-02T02:58:32.140Z,101261.00
2023-10-02T03:03:34.849Z,101262.41
2023-10-02T03:08:40.428Z,101269.63
2023-10-02T03:13:43.012Z,101265.50
2023-10-02T03:18:46.182Z,101267.97
2023-10-02T03:23:49.892Z,101276.22
2023-10-02T03:29:02.615Z,101278.28
2023-10-02T03:34:26.608Z,101278.28
2023-10-02T03:39:52.973Z,101293.09
2023-10-02T03:45:00.236Z,101288.97
2023-10-02T03:50:04.778Z,101289.78
2023-10-02T03:55:17.731Z,101286.66
2023-10-02T04:00:23.404Z,101281.72
2023-10-02T04:05:44.128Z,101275.31
2023-10-02T04:10:58.609Z,101274.47
2023-10-02T04:16:24.062Z,101277.53
2023-10-02T04:21:26.852Z,101279.75
2023-10-02T04:26:35.117Z,101289.59
2023-10-02T04:32:20.789Z,101303.56
2023-10-02T04:37:26.559Z,101312.13
2023-10-02T04:42:52.319Z,101302.81
2023-10-02T04:48:02.145Z,101317.34
2023-10-02T04:53:21.427Z,101311.31
2023-10-02T04:58:29.038Z,101320.47
2023-10-02T05:03:32.893Z,101315.06
2023-10-02T05:08:43.128Z,101308.94
2023-10-02T05:13:57.845Z,101315.13
2023-10-02T05:19:02.757Z,101313.81
2023-10-02T05:24:14.886Z,101319.22
2023-10-02T05:29:38.391Z,101314.59
2023-10-02T05:35:00.404Z,101320.09
2023-10-02T05:40:22.225Z,101301.84
2023-10-02T05:45:47.426Z,101313.13
2023-10-02T05:51:14.613Z,101319.69
2023-10-02T05:56:18.574Z,101321.81
2023-10-02T06:01:25.831Z,101318.25
2023-10-02T06:06:36.081Z,101331.66
2023-10-02T06:11:58.597Z,101319.28
2023-10-02T06:17:02.469Z,101325.03
2023-10-02T06:22:08.032Z,101323.53
2023-10-02T06:27:15.733Z,101313.03
2023-10-02T06:32:21.869Z,101319.91
2023-10-02T06:37:31.659Z,101317.41
2023-10-02T06:42:35.006Z,101316.16
2023-10-02T06:47:38.358Z,101313.22
2023-10-02T06:52:41.638Z,101313.81
2023-10-02T06:57:51.288Z,101309.88
2023-10-02T07:02:59.825Z,101316.69
2023-10-02T07:08:20.295Z,101315.84
2023-10-02T07:13:24.089Z,101314.88
2023-10-02T07:18:39.161Z,101303.16
2023-10-02T07:23:46.089Z,101303.84
2023-10-02T07:28:55.069Z,101309.06
2023-10-02T07:33:57.910Z,101304.22
2023-10-02T07:39:02.277Z,101296.69
2023-10-02T07:44:12.199Z,101291.09
2023-10-02T07:49:15.435Z,101300.31
2023-10-02T07:54:18.330Z,101295.16
2023-10-02T07:59:21.156Z,101290.09
2023-10-02T08:04:43.784Z,101287.53
2023-10-02T08:09:53.501Z,101283.69
2023-10-02T08:14:58.536Z,101284.06
2023-10-02T08:20:17.746Z,101275.44
2023-10-02T08:25:25.363Z,101276.72
2023-10-02T08:30:46.556Z,101265.13
2023-10-02T08:41:09.843Z,101263.34
2023-10-02T08:46:23.886Z,101258.53
2023-10-02T08:51:37.728Z,101249.81
2023-10-02T08:56:46.638Z,101246.25
2023-10-02T09:01:50.430Z,101245.84
2023-10-02T09:07:16.115Z,101240.41
2023-10-02T09:12:19.209Z,101233.63
2023-10-02T09:17:25.517Z,101234.34
2023-10-02T09:22:29.969Z,101223.38
2023-10-02T09:27:33.266Z,101230.56
2023-10-02T09:32:48.823Z,101226.69
2023-10-02T09:38:01.584Z,101221.03
2023-10-02T09:43:12.652Z,101217.31
2023-10-02T09:48:48.370Z,101215.19
2023-10-02T09:54:18.774Z,101196.88
2023-10-02T09:59:25.107Z,101206.25
2023-10-02T10:05:12.901Z,101191.41
2023-10-02T10:10:50.576Z,101197.06
2023-10-02T10:16:20.959Z,101199.66
2023-10-02T10:22:00.345Z,101201.00
2023-10-02T10:27:04.562Z,101191.59
2023-10-02T10:32:20.495Z,101189.69
2023-10-02T10:37:48.701Z,101192.09
2023-10-02T10:43:01.749Z,101190.72
2023-10-02T10:48:04.603Z,101181.75
2023-10-02T10:53:25.997Z,101176.19
2023-10-02T10:58:35.291Z,101178.59
2023-10-02T11:03:40.540Z,101183.06
2023-10-02T11:08:46.040Z,101180.78
2023-10-02T11:13:59.961Z,101176.94
2023-10-02T11:19:28.080Z,101169.13
2023-10-02T11:24:35.148Z,101175.44
2023-10-02T11:29:43.261Z,101155.84
2023-10-02T11:35:04.928Z,101155.34
2023-10-02T11:40:08.448Z,101143.47
2023-10-02T11:45:12.281Z,101147.03
2023-10-02T11:50:17.531Z,101140.56
2023-10-02T11:55:20.707Z,101124.66
2023-10-02T12:00:25.736Z,101129.88
2023-10-02T12:05:31.767Z,101127.72
2023-10-02T12:10:34.676Z,101127.28
2023-10-02T12:15:37.529Z,101128.81
2023-10-02T12:20:44.391Z,101123.41
2023-10-02T12:25:49.772Z,101114.56
2023-10-02T12:30:52.447Z,101121.78
2023-10-02T12:35:56.417Z,101127.19
2023-10-02T12:40:59.129Z,101117.41
2023-10-02T12:46:07.634Z,101115.34
2023-10-02T12:51:11.432Z,101117.31
2023-10-02T12:56:21.517Z,101120.44
2023-10-02T13:01:31.112Z,101121.47
2023-10-02T13:06:35.510Z,101114.34
2023-10-02T13:11:41.304Z,101108.47
2023-10-02T13:16:44.797Z,101118.63
2023-10-02T13:21:53.854Z,101108.72
2023-10-02T13:26:57.308Z,101113.09
2023-10-02T13:32:01.218Z,101111.19
2023-10-02T13:37:03.974Z,101114.25
2023-10-02T13:42:06.710Z,101113.88
2023-10-02T13:47:19.413Z,101110.97
2023-10-02T13:52:30.295Z,101129.38
2023-10-02T13:57:32.874Z,101128.63
2023-10-02T14:02:35.545Z,101125.84
2023-10-02T14:07:38.249Z,101132.81
2023-10-02T14:12:44.014Z,101137.13
2023-10-02T14:17:51.135Z,101140.50
2023-10-02T14:22:53.959Z,101146.16
2023-10-02T14:27:56.732Z,101148.16
2023-10-02T14:33:02.646Z,101160.34
2023-10-02T14:38:05.631Z,101165.09
2023-10-02T14:43:10.003Z,101169.50
2023-10-02T14:48:35.920Z,101170.53
2023-10-02T14:53:41.972Z,101174.53
2023-10-02T14:58:52.114Z,101178.00
2023-10-02T15:03:56.728Z,101171.91
2023-10-02T15:09:11.019Z,101187.00
2023-10-02T15:14:13.689Z,101187.16
2023-10-02T15:19:17.145Z,101187.84
2023-10-02T15:24:19.754Z,101188.19
2023-10-02T15:29:22.859Z,101178.81
2023-10-02T15:34:26.463Z,101179.53
2023-10-02T15:39:29.096Z,101182.63
2023-10-02T15:44:31.789Z,101186.59
2023-10-02T15:49:36.038Z,101187.50
2023-10-02T15:54:44.753Z,101195.25
2023-10-02T15:59:47.352Z,101208.78
2023-10-02T16:04:52.581Z,101207.53
2023-10-02T16:09:55.419Z,101199.81
2023-10-02T16:14:57.970Z,101180.88
2023-10-02T16:20:00.711Z,101190.59
2023-10-02T16:25:06.184Z,101203.44
2023-10-02T16:30:12.991Z,101200.94
2023-10-02T16:35:20.907Z,101207.72
2023-10-02T16:40:24.983Z,101202.25
2023-10-02T16:45:28.707Z,101211.84
2023-10-02T16:50:34.448Z,101209.56
2023-10-02T16:55:37.209Z,101197.75
2023-10-02T17:00:42.676Z,101220.16
2023-10-02T17:05:46.069Z,101221.56
2023-10-02T17:10:48.940Z,101214.72
2023-10-02T17:15:52.031Z,101230.22
2023-10-02T17:20:54.740Z,101215.50
2023-10-02T17:26:01.745Z,101221.16
2023-10-02T17:31:04.992Z,101219.41
2023-10-02T17:36:08.594Z,101219.56
2023-10-02T17:41:11.451Z,101224.94
2023-10-02T17:46:14.255Z,101232.22
2023-10-02T17:51:17.030Z,101223.47
2023-10-02T17:56:19.982Z,101219.00
2023-10-02T18:01:22.876Z,101220.06
2023-10-02T18:06:25.601Z,101227.09
2023-10-02T18:11:28.349Z,101225.47
2023-10-02T18:16:31.138Z,101225.59
2023-10-02T18:21:35.376Z,101225.25
2023-10-02T18:26:38.136Z,101235.56
2023-10-02T18:31:41.918Z,101227.72
2023-10-02T18:36:44.718Z,101234.50
2023-10-02T18:41:47.421Z,101241.41
2023-10-02T18:46:55.584Z,101242.00
2023-10-02T18:52:00.699Z,101229.13
2023-10-02T18:57:04.176Z,101233.78
2023-10-02T19:02:06.822Z,101225.22
2023-10-02T19:07:09.397Z,101233.06
2023-10-02T19:12:12.119Z,101236.34
2023-10-02T19:17:14.738Z,101226.63
2023-10-02T19:22:17.459Z,101235.06
2023-10-02T19:27:20.047Z,101248.72
2023-10-02T19:32:22.654Z,101240.97
2023-10-02T19:37:25.326Z,101247.16
2023-10-02T19:42:28.809Z,101244.53
2023-10-02T19:47:31.514Z,101251.41
2023-10-02T19:52:34.234Z,101248.72
2023-10-02T19:57:37.088Z,101246.16
2023-10-02T20:02:40.130Z,101250.50
2023-10-02T20:07:43.806Z,101241.81
2023-10-02T20:18:09.245Z,101250.69
2023-10-02T20:23:11.986Z,101246.84
2023-10-02T20:28:14.788Z,101251.06
2023-10-02T20:33:20.033Z,101254.47
2023-10-02T20:38:22.731Z,101249.56
2023-10-02T20:43:25.361Z,101257.97
2023-10-02T20:48:28.203Z,101252.25
2023-10-02T20:53:30.915Z,101248.97
2023-10-02T20:58:33.593Z,101248.03
2023-10-02T21:03:36.943Z,101244.66
2023-10-02T21:08:39.613Z,101248.97
2023-10-02T21:13:42.163Z,101247.19
2023-10-02T21:18:44.869Z,101246.72
2023-10-02T21:23:47.422Z,101244.19
2023-10-02T21:28:51.818Z,101243.69
2023-10-02T21:33:54.383Z,101249.91
2023-10-02T21:38:57.038Z,101245.25
2023-10-02T21:43:59.959Z,101246.06
2023-10-02T21:49:03.757Z,101258.09
2023-10-02T21:54:07.322Z,101254.16
2023-10-02T21:59:10.140Z,101248.50
2023-10-02T22:04:13.944Z,101252.84
2023-10-02T22:09:16.728Z,101242.78
2023-10-02T22:14:19.658Z,101255.19
2023-10-02T22:19:22.288Z,101270.16
2023-10-02T22:24:25.583Z,101258.81
2023-10-02T22:29:28.795Z,101261.84
2023-10-02T22:34:41.049Z,101258.44
2023-10-02T22:39:45.093Z,101265.66
2023-10-02T22:44:48.263Z,101263.09
2023-10-02T22:49:51.346Z,101265.19
2023-10-02T22:54:54.228Z,101274.78
2023-10-02T22:59:56.888Z,101264.13
2023-10-02T23:04:59.609Z,101273.31
2023-10-02T23:10:02.279Z,101266.84
2023-10-02T23:15:06.384Z,101271.78
2023-10-02T23:20:16.518Z,101261.81
2023-10-02T23:25:20.907Z,101261.97
2023-10-02T23:30:24.444Z,101265.13
2023-10-02T23:35:27.791Z,101270.44
2023-10-02T23:40:30.462Z,101265.41
2023-10-02T23:45:38.076Z,101266.34
2023-10-02T23:50:45.199Z,101270.41
2023-10-02T23:55:48.502Z,101266.78
